CheckWX is a tool to help pilots better visualize weather data.  It is not intended as a substitute for an official pre-flight weather briefing.

00:53:30 UTC

KFDR METAR
Frederick Regional Airport
Frederick, Oklahoma, USA
Current

1 hour ago

KFDR 272353Z AUTO 03006KT 10SM BKN110 29/10 A2981 RMK AO2 SLP078 T02890100 10300 20278 56008
Observed
May-27 @ 23:53 UTC
Wind
  • 030° at 6 KTS
Visibility
Flight Rules
VFR
Cloud Levels
  • Broken at 11,000' AGL
Temperature
29°C / 84°F
Dewpoint
10°C / 50°F
Humidity
31%
Altimeter
29.81" Hg
Pressure
1009.52 hPa
Previous

2 hours ago

KFDR 272253Z AUTO 00000KT 10SM CLR 29/10 A2981 RMK AO2 SLP079 T02890100
Observed
May-27 @ 22:53 UTC
Visibility
Flight Rules
VFR
Cloud Levels
  • Clear skies
Temperature
29°C / 84°F
Dewpoint
10°C / 50°F
Humidity
31%
Altimeter
29.81" Hg
Pressure
1009.52 hPa
Previous

3 hours ago

KFDR 272153Z AUTO 04006KT 10SM CLR 30/11 A2982 RMK AO2 SLP080 T03000106
Observed
May-27 @ 21:53 UTC
Wind
  • 040° at 6 KTS
Visibility
Flight Rules
VFR
Cloud Levels
  • Clear skies
Temperature
30°C / 86°F
Dewpoint
11°C / 52°F
Humidity
31%
Altimeter
29.82" Hg
Pressure
1009.82 hPa